createdAt,value
2018-10-03T00:00:02.394Z,89.80
2018-10-03T00:02:38.160Z,89.89
2018-10-03T00:05:07.374Z,89.24
2018-10-03T00:07:40.163Z,88.79
2018-10-03T00:10:08.838Z,87.85
2018-10-03T00:12:38.057Z,87.86
2018-10-03T00:15:07.207Z,89.00
2018-10-03T00:17:37.441Z,90.21
2018-10-03T00:20:06.629Z,89.31
2018-10-03T00:22:38.202Z,88.64
2018-10-03T00:25:07.365Z,88.39
2018-10-03T00:27:46.093Z,87.62
2018-10-03T00:30:15.078Z,88.32
2018-10-03T00:32:44.074Z,87.90
2018-10-03T00:35:13.153Z,87.92
2018-10-03T00:37:42.459Z,88.17
2018-10-03T00:40:11.506Z,88.77
2018-10-03T00:42:41.004Z,88.33
2018-10-03T00:45:10.002Z,88.69
2018-10-03T00:47:41.482Z,88.34
2018-10-03T00:50:10.538Z,89.31
2018-10-03T00:52:39.690Z,89.74
2018-10-03T00:55:09.152Z,90.37
2018-10-03T00:57:38.256Z,90.30
2018-10-03T01:00:07.609Z,90.34
2018-10-03T01:02:36.770Z,89.90
2018-10-03T01:05:06.159Z,88.62
2018-10-03T01:07:40.120Z,88.56
2018-10-03T01:10:09.152Z,87.48
2018-10-03T01:12:38.163Z,87.56
2018-10-03T01:15:07.394Z,87.18
2018-10-03T01:17:36.862Z,86.66
2018-10-03T01:20:06.879Z,87.11
2018-10-03T01:22:36.630Z,87.95
2018-10-03T01:25:06.004Z,88.71
2018-10-03T01:27:40.623Z,88.95
2018-10-03T01:30:09.719Z,88.79
2018-10-03T01:32:38.979Z,89.69
2018-10-03T01:35:08.124Z,90.04
2018-10-03T01:37:37.236Z,89.86
2018-10-03T01:40:06.360Z,90.30
2018-10-03T01:42:37.933Z,90.17
2018-10-03T01:45:07.042Z,90.49
2018-10-03T01:47:40.370Z,90.44
2018-10-03T01:50:09.402Z,90.45
2018-10-03T01:52:38.473Z,89.86
2018-10-03T01:55:07.585Z,89.96
2018-10-03T01:57:36.800Z,89.38
2018-10-03T02:00:05.972Z,88.86
2018-10-03T02:02:42.516Z,89.11
2018-10-03T02:05:11.549Z,90.06
2018-10-03T02:07:41.982Z,90.90
2018-10-03T02:10:11.061Z,90.74
2018-10-03T02:12:40.394Z,90.39
2018-10-03T02:15:09.671Z,90.37
2018-10-03T02:17:38.729Z,90.65
2018-10-03T02:20:08.669Z,90.44
2018-10-03T02:22:38.508Z,89.93
2018-10-03T02:25:07.777Z,90.42
2018-10-03T02:27:37.444Z,90.77
2018-10-03T02:30:07.304Z,90.67
2018-10-03T02:32:36.833Z,91.22
2018-10-03T02:35:06.003Z,91.01
2018-10-03T02:37:35.608Z,90.80
2018-10-03T02:40:04.816Z,90.31
2018-10-03T02:42:37.944Z,90.72
2018-10-03T02:45:07.106Z,90.71
2018-10-03T02:47:40.357Z,90.77
2018-10-03T02:50:09.504Z,91.17
2018-10-03T02:52:39.323Z,90.98
2018-10-03T02:55:07.903Z,91.37
2018-10-03T02:57:37.309Z,91.58
2018-10-03T03:00:06.439Z,91.24
2018-10-03T03:02:45.273Z,91.32
2018-10-03T03:05:14.315Z,91.66
2018-10-03T03:07:44.064Z,91.96
2018-10-03T03:10:13.128Z,92.61
2018-10-03T03:12:42.082Z,93.15
2018-10-03T03:15:11.154Z,93.64
2018-10-03T03:17:40.319Z,93.74
2018-10-03T03:20:09.513Z,93.83
2018-10-03T03:22:39.290Z,93.85
2018-10-03T03:25:08.368Z,93.98
2018-10-03T03:27:40.870Z,93.79
2018-10-03T03:30:09.884Z,94.42
2018-10-03T03:32:39.081Z,95.03
2018-10-03T03:35:08.274Z,95.46
2018-10-03T03:37:37.403Z,95.07
2018-10-03T03:40:06.446Z,94.37
2018-10-03T03:42:37.757Z,94.62
2018-10-03T03:45:06.790Z,94.43
2018-10-03T03:47:40.163Z,94.19
2018-10-03T03:50:09.214Z,94.42
2018-10-03T03:52:38.550Z,94.97
2018-10-03T03:55:07.692Z,95.27
2018-10-03T03:57:37.214Z,94.97
2018-10-03T04:00:06.356Z,94.56
2018-10-03T04:02:35.444Z,94.36
2018-10-03T04:05:04.461Z,94.27
2018-10-03T04:07:40.580Z,93.70
2018-10-03T04:10:09.608Z,93.56
2018-10-03T04:12:38.738Z,93.66
2018-10-03T04:15:07.857Z,93.46
2018-10-03T04:17:37.734Z,93.57
2018-10-03T04:20:06.998Z,93.15
2018-10-03T04:22:38.208Z,93.36
2018-10-03T04:25:07.284Z,93.14
2018-10-03T04:27:41.027Z,93.19
2018-10-03T04:30:10.021Z,92.82
2018-10-03T04:32:39.315Z,92.80
2018-10-03T04:35:08.345Z,92.95
2018-10-03T04:37:37.568Z,92.89
2018-10-03T04:40:06.649Z,92.66
2018-10-03T04:42:44.035Z,92.37
2018-10-03T04:45:14.115Z,92.12
2018-10-03T04:47:46.813Z,92.65
2018-10-03T04:50:17.515Z,92.50
2018-10-03T04:52:48.070Z,93.08
2018-10-03T04:55:19.347Z,93.03
2018-10-03T04:57:48.593Z,92.91
2018-10-03T05:00:21.853Z,93.07
2018-10-03T05:02:59.606Z,93.05
2018-10-03T05:05:30.359Z,93.93
2018-10-03T05:08:07.264Z,94.67
2018-10-03T05:10:36.832Z,94.51
2018-10-03T05:13:10.473Z,94.42
2018-10-03T05:15:42.001Z,94.65
2018-10-03T05:18:12.189Z,93.99
2018-10-03T05:20:43.311Z,94.12
2018-10-03T05:23:13.515Z,94.30
2018-10-03T05:25:42.574Z,94.05
2018-10-03T05:28:11.985Z,93.97
2018-10-03T05:30:41.079Z,93.62
2018-10-03T05:33:11.359Z,92.50
2018-10-03T05:35:41.167Z,91.52
2018-10-03T05:38:10.632Z,89.12
2018-10-03T05:40:40.329Z,86.84
2018-10-03T05:43:09.438Z,84.58
2018-10-03T05:45:38.471Z,83.51
2018-10-03T05:48:08.117Z,82.65
2018-10-03T05:50:37.241Z,82.96
2018-10-03T05:53:06.368Z,80.93
2018-10-03T05:55:35.369Z,79.38
2018-10-03T05:58:04.427Z,77.24
2018-10-03T06:00:33.956Z,77.00
2018-10-03T06:03:08.599Z,72.97
2018-10-03T06:05:37.689Z,74.60
2018-10-03T06:08:06.752Z,73.64
2018-10-03T06:10:35.861Z,71.25
2018-10-03T06:13:05.466Z,71.78
2018-10-03T06:15:34.897Z,71.00
2018-10-03T06:18:04.182Z,69.72
2018-10-03T06:20:33.625Z,69.55
2018-10-03T06:23:03.072Z,69.39
2018-10-03T06:25:33.133Z,68.28
2018-10-03T06:41:18.846Z,63.71
2018-10-03T06:43:47.993Z,64.00
2018-10-03T06:46:21.865Z,62.22
2018-10-03T06:48:51.214Z,60.48
2018-10-03T06:51:24.848Z,57.52
2018-10-03T06:53:54.200Z,55.52
2018-10-03T06:56:28.483Z,56.61
2018-10-03T06:58:57.912Z,55.84
2018-10-03T07:01:27.212Z,54.92
2018-10-03T07:04:02.514Z,53.37
2018-10-03T07:06:36.376Z,53.04
2018-10-03T07:09:07.624Z,52.29
2018-10-03T07:11:45.625Z,51.13
2018-10-03T07:14:15.221Z,54.59
2018-10-03T07:16:51.696Z,52.77
2018-10-03T07:19:21.096Z,53.64
2018-10-03T07:21:55.771Z,52.13
2018-10-03T07:24:25.264Z,51.37
2018-10-03T07:27:00.551Z,49.84
2018-10-03T07:29:30.335Z,48.20
2018-10-03T07:32:02.918Z,50.51
2018-10-03T07:34:32.356Z,52.64
2018-10-03T07:37:05.956Z,51.82
2018-10-03T07:39:35.154Z,51.51
2018-10-03T07:42:09.408Z,49.87
2018-10-03T07:44:38.566Z,50.77
2018-10-03T07:47:13.572Z,51.39
2018-10-03T07:49:42.677Z,52.14
2018-10-03T07:52:22.006Z,50.27
2018-10-03T07:54:51.077Z,49.59
2018-10-03T07:57:29.690Z,46.82
2018-10-03T07:59:58.770Z,46.64
2018-10-03T08:02:32.423Z,46.56
2018-10-03T08:05:01.545Z,44.82
2018-10-03T08:07:38.828Z,46.55
2018-10-03T08:10:07.968Z,45.74
2018-10-03T08:12:38.001Z,44.76
2018-10-03T08:15:07.688Z,45.08
2018-10-03T08:17:37.200Z,46.19
2018-10-03T08:20:06.789Z,44.40
2018-10-03T08:22:38.157Z,43.37
2018-10-03T08:25:07.798Z,43.13
2018-10-03T08:27:40.948Z,41.82
2018-10-03T08:30:10.161Z,43.22
2018-10-03T08:32:39.466Z,41.69
2018-10-03T08:35:08.592Z,39.58
2018-10-03T08:37:38.083Z,39.62
2018-10-03T08:40:07.194Z,38.78
2018-10-03T08:42:37.834Z,40.12
2018-10-03T08:45:07.223Z,39.79
2018-10-03T08:47:41.413Z,39.63
2018-10-03T08:50:12.249Z,38.83
2018-10-03T08:52:41.425Z,38.42
2018-10-03T08:55:10.641Z,38.90
2018-10-03T08:58:00.290Z,36.85
2018-10-03T09:00:32.601Z,37.54
2018-10-03T09:03:14.977Z,38.62
2018-10-03T09:05:44.681Z,37.00
2018-10-03T09:08:18.740Z,38.49
2018-10-03T09:10:49.727Z,39.78
2018-10-03T09:13:27.949Z,38.62
2018-10-03T09:15:56.987Z,38.25
2018-10-03T09:18:26.387Z,38.05
2018-10-03T09:20:55.764Z,38.62
2018-10-03T09:23:25.507Z,37.36
2018-10-03T09:25:55.045Z,36.80
2018-10-03T09:28:24.759Z,36.06
2018-10-03T09:30:53.717Z,35.21
2018-10-03T09:33:22.845Z,35.23
2018-10-03T09:35:52.226Z,33.19
2018-10-03T09:38:21.349Z,33.56
2018-10-03T09:40:50.770Z,36.91
2018-10-03T09:43:19.770Z,37.37
2018-10-03T09:45:48.756Z,35.86
2018-10-03T09:57:00.973Z,34.52
2018-10-03T09:59:30.119Z,36.15
2018-10-03T10:01:59.205Z,34.19
2018-10-03T10:04:37.839Z,34.30
2018-10-03T10:07:10.758Z,33.31
2018-10-03T10:09:39.846Z,35.34
2018-10-03T10:12:18.661Z,36.53
2018-10-03T10:14:47.693Z,38.28
2018-10-03T10:17:26.487Z,37.15
2018-10-03T10:19:55.791Z,36.97
2018-10-03T10:22:34.714Z,37.08
2018-10-03T10:25:04.118Z,39.74
2018-10-03T10:27:39.718Z,36.10
2018-10-03T10:30:08.869Z,39.41
2018-10-03T10:32:38.071Z,37.50
2018-10-03T10:35:07.344Z,37.41
2018-10-03T10:37:36.677Z,37.69
2018-10-03T10:40:05.879Z,36.81
2018-10-03T10:42:37.250Z,36.15
2018-10-03T10:45:06.751Z,36.50
2018-10-03T10:47:40.584Z,35.60
2018-10-03T10:50:09.639Z,34.95
2018-10-03T10:52:38.759Z,34.25
2018-10-03T10:55:07.809Z,35.92
2018-10-03T10:57:37.560Z,36.98
2018-10-03T11:00:06.803Z,36.70
2018-10-03T11:02:43.776Z,36.51
2018-10-03T11:05:13.244Z,36.00
2018-10-03T11:07:43.276Z,37.18
2018-10-03T11:10:12.361Z,37.10
2018-10-03T11:12:41.668Z,36.20
2018-10-03T11:15:11.024Z,37.54
2018-10-03T11:17:40.163Z,36.73
2018-10-03T11:20:09.214Z,37.98
2018-10-03T11:22:40.252Z,36.69
2018-10-03T11:25:09.322Z,35.99
2018-10-03T11:27:41.116Z,33.85
2018-10-03T11:30:10.157Z,32.41
2018-10-03T11:32:40.969Z,32.44
2018-10-03T11:35:10.089Z,32.47
2018-10-03T11:37:40.569Z,33.00
2018-10-03T11:40:09.730Z,34.71
2018-10-03T11:42:39.543Z,32.78
2018-10-03T11:45:08.748Z,32.22
2018-10-03T11:50:44.673Z,32.37
2018-10-03T11:53:13.680Z,34.00
2018-10-03T11:55:42.706Z,32.24
2018-10-03T11:58:11.894Z,31.94
2018-10-03T12:00:41.163Z,31.97
2018-10-03T12:03:14.398Z,31.81
2018-10-03T12:05:43.298Z,31.72
2018-10-03T12:08:12.367Z,30.86
2018-10-03T12:10:41.474Z,30.99
2018-10-03T12:13:10.481Z,31.87
2018-10-03T12:15:39.572Z,30.46
2018-10-03T12:18:08.744Z,31.68
2018-10-03T12:20:37.782Z,30.03
2018-10-03T12:23:06.741Z,31.25
2018-10-03T12:25:35.858Z,30.51
2018-10-03T12:28:04.854Z,30.69
2018-10-03T12:30:34.330Z,31.64
2018-10-03T12:33:03.389Z,32.43
2018-10-03T12:35:34.621Z,31.61
2018-10-03T12:38:04.099Z,31.86
2018-10-03T12:40:33.956Z,32.99
2018-10-03T12:43:03.046Z,33.26
2018-10-03T12:45:33.175Z,33.19
2018-10-03T12:48:02.562Z,31.85
2018-10-03T12:50:32.266Z,31.11
2018-10-03T12:53:01.466Z,31.22
2018-10-03T12:55:30.819Z,31.96
2018-10-03T12:58:00.021Z,33.18
2018-10-03T13:00:32.076Z,32.69
2018-10-03T13:03:05.256Z,30.22
2018-10-03T13:05:34.527Z,30.34
2018-10-03T13:08:03.663Z,30.86
2018-10-03T13:10:33.630Z,30.64
2018-10-03T13:13:02.727Z,31.63
2018-10-03T13:15:32.383Z,31.87
2018-10-03T13:18:01.544Z,31.89
2018-10-03T13:20:31.106Z,31.83
2018-10-03T13:23:07.819Z,32.69
2018-10-03T13:25:37.853Z,34.34
2018-10-03T13:28:06.949Z,34.01
2018-10-03T13:30:36.042Z,34.87
2018-10-03T13:33:05.400Z,34.98
2018-10-03T13:35:34.376Z,36.65
2018-10-03T13:38:03.313Z,37.79
2018-10-03T13:40:33.126Z,37.72
2018-10-03T13:43:02.112Z,38.43
2018-10-03T13:45:32.373Z,39.46
2018-10-03T13:48:02.220Z,39.22
2018-10-03T13:50:31.609Z,38.49
2018-10-03T13:53:00.636Z,39.16
2018-10-03T13:55:30.073Z,39.49
2018-10-03T13:57:59.413Z,40.19
2018-10-03T14:00:28.470Z,41.12
2018-10-03T14:03:00.340Z,40.35
2018-10-03T14:05:29.868Z,41.78
2018-10-03T14:08:03.245Z,42.10
2018-10-03T14:10:32.845Z,42.78
2018-10-03T14:13:02.172Z,43.04
2018-10-03T14:15:31.729Z,43.86
2018-10-03T14:18:06.003Z,43.61
2018-10-03T14:20:35.745Z,45.69
2018-10-03T14:23:05.115Z,46.19
2018-10-03T14:25:34.521Z,45.80
2018-10-03T14:28:03.640Z,45.92
2018-10-03T14:30:33.097Z,47.45
2018-10-03T14:33:02.218Z,46.61
2018-10-03T14:42:02.192Z,46.51
2018-10-03T14:44:31.621Z,46.59
2018-10-03T14:47:04.783Z,45.96
2018-10-03T14:49:33.827Z,47.66
2018-10-03T14:52:07.260Z,47.13
2018-10-03T14:54:36.373Z,47.49
2018-10-03T14:57:09.895Z,46.53
2018-10-03T14:59:39.294Z,47.86
2018-10-03T15:02:15.354Z,46.79
2018-10-03T15:04:44.478Z,47.31
2018-10-03T15:07:26.969Z,47.93
2018-10-03T15:10:18.201Z,47.82
2018-10-03T15:13:09.852Z,47.68
2018-10-03T15:15:56.010Z,48.49
2018-10-03T15:21:43.191Z,47.83
2018-10-03T15:24:12.347Z,49.66
2018-10-03T15:26:46.938Z,50.21
2018-10-03T15:29:16.048Z,49.33
2018-10-03T15:31:50.404Z,50.07
2018-10-03T15:34:19.530Z,50.43
2018-10-03T15:36:55.642Z,50.17
2018-10-03T15:39:24.791Z,50.11
2018-10-03T15:42:01.107Z,48.96
2018-10-03T15:44:30.679Z,50.29
2018-10-03T15:47:03.748Z,49.14
2018-10-03T15:49:33.447Z,49.90
2018-10-03T15:52:07.505Z,48.28
2018-10-03T15:54:36.762Z,49.71
2018-10-03T15:57:08.547Z,49.86
2018-10-03T15:59:37.677Z,51.80
2018-10-03T16:02:07.069Z,51.08
2018-10-03T16:04:43.267Z,51.83
2018-10-03T16:07:16.517Z,51.87
2018-10-03T16:09:45.708Z,53.64
2018-10-03T16:12:23.183Z,52.27
2018-10-03T16:14:52.271Z,53.44
2018-10-03T16:17:30.788Z,54.10
2018-10-03T16:20:00.503Z,53.87
2018-10-03T16:22:37.059Z,54.20
2018-10-03T16:25:06.306Z,55.30
2018-10-03T16:27:45.259Z,55.51
2018-10-03T16:30:14.738Z,54.88
2018-10-03T16:32:50.387Z,54.73
2018-10-03T16:35:22.312Z,55.80
2018-10-03T16:37:52.890Z,56.65
2018-10-03T16:40:23.415Z,57.69
2018-10-03T16:42:58.357Z,57.38
2018-10-03T16:45:27.764Z,57.99
2018-10-03T16:48:09.545Z,58.79
2018-10-03T16:50:39.757Z,58.32
2018-10-03T16:53:09.027Z,59.26
2018-10-03T16:55:38.273Z,58.96
2018-10-03T16:58:08.159Z,59.20
2018-10-03T17:00:38.656Z,59.02
2018-10-03T17:03:15.639Z,59.20
2018-10-03T17:05:45.148Z,59.56
2018-10-03T17:08:14.402Z,60.21
2018-10-03T17:10:44.065Z,61.36
2018-10-03T17:13:18.997Z,61.19
2018-10-03T17:15:48.029Z,60.93
2018-10-03T17:18:17.127Z,62.02
2018-10-03T17:20:46.337Z,62.38
2018-10-03T17:23:15.526Z,62.14
2018-10-03T17:25:44.761Z,63.50
2018-10-03T17:28:21.142Z,63.77
2018-10-03T17:30:51.595Z,63.93
2018-10-03T17:33:20.842Z,65.46
2018-10-03T17:35:50.042Z,65.40
2018-10-03T17:38:19.233Z,66.13
2018-10-03T17:40:48.702Z,67.27
2018-10-03T17:43:17.879Z,67.58
2018-10-03T17:45:46.992Z,68.08
2018-10-03T17:48:16.164Z,68.74
2018-10-03T17:50:45.303Z,69.19
2018-10-03T17:53:14.501Z,69.47
2018-10-03T17:55:43.694Z,69.42
2018-10-03T17:58:12.783Z,70.61
2018-10-03T18:00:42.016Z,70.47
2018-10-03T18:03:16.990Z,69.91
2018-10-03T18:05:46.373Z,70.35
2018-10-03T18:08:15.518Z,70.92
2018-10-03T18:10:44.843Z,70.53
2018-10-03T18:13:13.932Z,70.59
2018-10-03T18:15:43.064Z,71.42
2018-10-03T18:18:12.214Z,70.81
2018-10-03T18:20:41.333Z,71.52
2018-10-03T18:23:10.768Z,71.36
2018-10-03T18:25:40.076Z,71.62
2018-10-03T18:28:09.318Z,72.37
2018-10-03T18:30:38.485Z,71.03
2018-10-03T18:33:08.263Z,72.37
2018-10-03T18:35:37.490Z,73.51
2018-10-03T18:38:06.692Z,73.04
2018-10-03T18:40:35.974Z,73.00
2018-10-03T18:43:05.377Z,74.41
2018-10-03T18:45:36.240Z,74.36
2018-10-03T18:48:06.610Z,73.87
2018-10-03T18:50:35.668Z,73.87
2018-10-03T18:53:05.557Z,73.41
2018-10-03T18:55:34.590Z,74.45
2018-10-03T18:58:03.713Z,74.92
2018-10-03T19:00:32.920Z,75.62
2018-10-03T19:03:01.993Z,75.98
2018-10-03T19:05:31.485Z,78.26
2018-10-03T19:08:02.858Z,79.29
2018-10-03T19:10:42.251Z,80.16
2018-10-03T19:13:37.278Z,82.00
2018-10-03T19:16:12.830Z,81.92
2018-10-03T19:19:25.476Z,83.06
2018-10-03T19:22:24.868Z,83.13
2018-10-03T19:24:54.002Z,84.19
2018-10-03T19:27:53.447Z,85.03
2018-10-03T19:30:26.478Z,83.43
2018-10-03T19:32:56.378Z,84.53
2018-10-03T19:35:26.181Z,84.04
2018-10-03T19:37:56.047Z,83.10
2018-10-03T19:40:26.082Z,82.92
2018-10-03T19:42:58.479Z,83.22
2018-10-03T19:45:39.452Z,82.67
2018-10-03T19:48:10.405Z,82.33
2018-10-03T19:50:40.932Z,82.82
2018-10-03T19:53:10.666Z,82.91
2018-10-03T19:58:33.378Z,83.50
2018-10-03T20:01:14.322Z,83.58
2018-10-03T20:03:45.440Z,83.04
2018-10-03T20:06:16.306Z,83.80
2018-10-03T20:08:50.830Z,84.42
2018-10-03T20:11:26.470Z,84.60
2018-10-03T23:03:14.779Z,82.84
2018-10-03T23:05:43.888Z,82.82
2018-10-03T23:08:13.157Z,83.66
2018-10-03T23:10:42.381Z,83.98
2018-10-03T23:13:11.573Z,82.88
2018-10-03T23:15:40.796Z,82.12
2018-10-03T23:18:42.429Z,82.87
2018-10-03T23:21:11.914Z,82.79
2018-10-03T23:23:41.651Z,83.06
2018-10-03T23:26:10.842Z,82.45
2018-10-03T23:28:42.300Z,82.48
2018-10-03T23:31:11.505Z,82.68
2018-10-03T23:33:40.762Z,82.79
2018-10-03T23:36:09.911Z,82.70
2018-10-03T23:38:39.088Z,82.30
2018-10-03T23:41:08.494Z,82.58
2018-10-03T23:43:37.712Z,81.39
2018-10-03T23:46:07.836Z,80.95
2018-10-03T23:48:37.019Z,82.06
2018-10-03T23:51:06.250Z,82.00
2018-10-03T23:53:35.420Z,82.11
2018-10-03T23:56:04.584Z,82.49
2018-10-03T23:58:33.879Z,82.51
